createdAt,value
2019-03-26T00:02:57.764Z,12.07
2019-03-26T00:08:15.735Z,8.57
2019-03-26T00:13:37.238Z,12.90
2019-03-26T00:18:51.697Z,14.50
2019-03-26T00:24:01.154Z,9.23
2019-03-26T00:29:19.252Z,13.63
2019-03-26T00:35:01.439Z,9.70
2019-03-26T00:40:15.440Z,7.37
2019-03-26T00:45:29.346Z,12.57
2019-03-26T00:50:42.963Z,9.67
2019-03-26T00:56:02.660Z,8.87
2019-03-26T01:01:15.661Z,17.13
2019-03-26T01:06:29.914Z,10.83
2019-03-26T01:11:50.135Z,10.10
2019-03-26T01:17:07.138Z,9.80
2019-03-26T01:22:45.114Z,11.65
2019-03-26T01:28:00.952Z,13.25
2019-03-26T01:33:10.336Z,12.40
2019-03-26T01:38:22.556Z,7.23
2019-03-26T01:43:38.419Z,13.47
2019-03-26T01:48:57.408Z,10.23
2019-03-26T01:54:11.671Z,14.17
2019-03-26T01:59:24.487Z,9.93
2019-03-26T02:04:40.450Z,9.87
2019-03-26T02:09:54.016Z,10.60
2019-03-26T02:15:07.573Z,12.20
2019-03-26T02:20:19.057Z,16.15
2019-03-26T02:25:33.658Z,7.20
2019-03-26T02:30:49.194Z,9.93
2019-03-26T02:36:17.118Z,11.20
2019-03-26T02:41:32.617Z,14.73
2019-03-26T02:46:52.113Z,13.83
2019-03-26T02:52:05.541Z,13.50
2019-03-26T02:57:19.114Z,13.10
2019-03-26T03:02:35.534Z,13.40
2019-03-26T03:07:49.252Z,12.17
2019-03-26T03:13:09.041Z,9.40
2019-03-26T03:18:20.587Z,16.02
2019-03-26T03:23:30.272Z,8.80
2019-03-26T03:28:42.447Z,14.13
2019-03-26T03:33:51.465Z,15.83
2019-03-26T03:39:08.713Z,12.27
2019-03-26T03:44:24.830Z,13.93
2019-03-26T03:49:50.881Z,19.17
2019-03-26T03:55:21.868Z,16.00
2019-03-26T04:00:49.059Z,11.40
2019-03-26T04:06:08.912Z,13.13
2019-03-26T04:11:13.364Z,9.80
2019-03-26T04:16:43.991Z,12.47
2019-03-26T04:21:57.429Z,13.37
2019-03-26T04:27:17.358Z,11.23
2019-03-26T04:32:32.161Z,14.77
2019-03-26T04:38:06.515Z,13.27
2019-03-26T04:43:22.467Z,17.55
2019-03-26T04:48:37.073Z,10.23
2019-03-26T04:53:57.314Z,14.07
2019-03-26T04:59:13.150Z,10.43
2019-03-26T05:04:23.974Z,12.73
2019-03-26T05:09:43.043Z,14.37
2019-03-26T05:15:04.452Z,14.10
2019-03-26T05:20:15.744Z,12.13
2019-03-26T05:25:32.013Z,14.20
2019-03-26T05:30:55.183Z,11.03
2019-03-26T05:36:06.563Z,14.80
2019-03-26T05:41:22.185Z,12.30
2019-03-26T05:46:41.730Z,17.00
2019-03-26T05:52:01.935Z,15.17
2019-03-26T05:57:09.272Z,12.70
2019-03-26T06:02:18.762Z,12.00
2019-03-26T06:07:36.234Z,11.67
2019-03-26T06:12:56.261Z,12.80
2019-03-26T06:18:14.314Z,13.57
2019-03-26T06:23:24.168Z,15.15
2019-03-26T06:28:47.076Z,14.37
2019-03-26T06:34:05.538Z,12.77
2019-03-26T06:39:29.003Z,13.88
2019-03-26T06:44:45.395Z,14.27
2019-03-26T06:50:06.921Z,13.37
2019-03-26T06:55:23.331Z,11.10
2019-03-26T07:00:37.247Z,12.60
2019-03-26T07:05:53.156Z,11.47
2019-03-26T07:11:12.762Z,8.93
2019-03-26T07:16:28.450Z,15.72
2019-03-26T07:21:50.177Z,15.23
2019-03-26T07:27:22.918Z,8.53
2019-03-26T07:32:57.366Z,13.27
2019-03-26T07:38:07.001Z,12.73
2019-03-26T07:43:17.343Z,14.43
2019-03-26T07:48:52.646Z,9.13
2019-03-26T07:54:05.576Z,12.10
2019-03-26T07:59:21.050Z,13.00
2019-03-26T08:04:35.456Z,14.60
2019-03-26T08:09:48.450Z,17.80
2019-03-26T08:15:04.188Z,14.07
2019-03-26T08:20:17.280Z,14.20
2019-03-26T08:25:33.852Z,14.20
2019-03-26T08:30:46.059Z,11.17
2019-03-26T08:36:00.034Z,17.20
2019-03-26T08:41:22.947Z,9.25
2019-03-26T08:46:38.505Z,15.33
2019-03-26T08:51:53.396Z,13.63
2019-03-26T08:57:09.216Z,12.13
2019-03-26T09:02:21.294Z,11.80
2019-03-26T09:07:56.624Z,12.90
2019-03-26T09:13:09.670Z,10.20
2019-03-26T09:18:25.599Z,13.23
2019-03-26T09:24:03.822Z,11.43
2019-03-26T09:29:13.569Z,16.27
2019-03-26T09:34:31.469Z,15.08
2019-03-26T09:40:06.847Z,13.50
2019-03-26T09:45:24.788Z,16.15
2019-03-26T09:51:02.112Z,25.47
2019-03-26T09:56:28.237Z,12.43
2019-03-26T10:01:36.038Z,15.17
2019-03-26T10:06:48.146Z,11.07
2019-03-26T10:12:01.281Z,10.30
2019-03-26T10:17:08.904Z,8.33
2019-03-26T10:22:39.901Z,7.30
2019-03-26T10:27:57.211Z,17.37
2019-03-26T10:33:27.392Z,19.00
2019-03-26T10:38:46.154Z,13.33
2019-03-26T10:44:03.676Z,11.17
2019-03-26T10:49:21.093Z,9.30
2019-03-26T10:54:32.288Z,12.57
2019-03-26T10:59:48.102Z,10.47
2019-03-26T11:05:00.614Z,16.63
2019-03-26T11:10:13.029Z,8.33
2019-03-26T11:15:26.059Z,10.43
2019-03-26T11:21:01.744Z,11.73
2019-03-26T11:26:10.302Z,10.97
2019-03-26T11:31:26.258Z,7.20
2019-03-26T11:36:41.640Z,8.67
2019-03-26T11:41:57.652Z,13.17
2019-03-26T11:47:12.086Z,10.87
2019-03-26T11:52:32.801Z,14.03
2019-03-26T11:57:51.196Z,9.67
2019-03-26T12:03:05.209Z,14.17
2019-03-26T12:08:25.436Z,11.18
2019-03-26T12:13:37.618Z,8.43
2019-03-26T12:18:53.059Z,12.00
2019-03-26T12:24:14.148Z,9.57
2019-03-26T12:29:32.079Z,9.40
2019-03-26T12:34:52.588Z,8.40
2019-03-26T12:40:10.324Z,10.90
2019-03-26T12:45:34.922Z,11.43
2019-03-26T12:50:46.364Z,13.10
2019-03-26T12:56:03.431Z,9.87
2019-03-26T13:01:14.173Z,11.87
2019-03-26T13:06:27.355Z,12.90
2019-03-26T13:11:46.081Z,7.63
2019-03-26T13:17:07.011Z,14.40
2019-03-26T13:22:42.627Z,10.60
2019-03-26T13:28:01.566Z,10.10
2019-03-26T13:33:11.569Z,13.03
2019-03-26T13:38:28.575Z,10.53
2019-03-26T13:43:39.038Z,11.10
2019-03-26T13:48:50.878Z,10.17
2019-03-26T13:54:04.175Z,9.10
2019-03-26T13:59:19.967Z,9.83
2019-03-26T14:04:31.059Z,8.87
2019-03-26T14:09:52.268Z,11.03
2019-03-26T14:15:08.154Z,10.07
2019-03-26T14:20:21.106Z,7.97
2019-03-26T14:25:37.010Z,9.97
2019-03-26T14:30:49.154Z,6.87
2019-03-26T14:35:57.034Z,9.83
2019-03-26T14:41:10.247Z,8.87
2019-03-26T14:46:22.988Z,9.38
2019-03-26T14:51:37.279Z,8.30
2019-03-26T14:56:47.947Z,9.13
2019-03-26T15:02:20.786Z,13.53
2019-03-26T15:07:32.645Z,8.67
2019-03-26T15:12:47.894Z,7.70
2019-03-26T15:18:05.859Z,5.17
2019-03-26T15:23:18.204Z,5.72
2019-03-26T15:28:33.348Z,6.62
2019-03-26T15:33:53.374Z,7.10
2019-03-26T15:39:12.912Z,10.50
2019-03-26T15:44:56.442Z,9.38
2019-03-26T15:50:09.473Z,8.97
2019-03-26T15:55:23.492Z,10.23
2019-03-26T16:00:37.661Z,6.87
2019-03-26T16:05:48.519Z,7.97
2019-03-26T16:11:07.784Z,19.67
2019-03-26T16:16:15.587Z,9.50
2019-03-26T16:21:25.842Z,9.65
2019-03-26T16:27:04.514Z,9.90
2019-03-26T16:32:24.144Z,13.22
2019-03-26T16:37:43.025Z,11.33
2019-03-26T16:42:55.848Z,12.73
2019-03-26T16:48:09.761Z,15.10
2019-03-26T16:53:24.214Z,13.67
2019-03-26T16:58:41.986Z,15.77
2019-03-26T17:03:57.783Z,14.57
2019-03-26T17:09:11.157Z,16.90
2019-03-26T17:14:22.992Z,14.17
2019-03-26T17:19:41.995Z,17.30
2019-03-26T17:25:17.520Z,15.10
2019-03-26T17:30:33.437Z,14.07
2019-03-26T17:35:51.373Z,13.20
2019-03-26T17:41:05.991Z,16.00
2019-03-26T17:46:34.933Z,15.73
2019-03-26T17:51:46.158Z,15.23
2019-03-26T17:57:00.583Z,14.53
2019-03-26T18:02:20.015Z,17.13
2019-03-26T18:07:35.462Z,17.00
2019-03-26T18:12:57.852Z,15.30
2019-03-26T18:18:15.691Z,17.63
2019-03-26T18:23:29.666Z,15.35
2019-03-26T18:28:38.918Z,25.77
2019-03-26T18:33:50.801Z,16.03
2019-03-26T18:39:14.146Z,14.50
2019-03-26T18:44:30.330Z,17.60
2019-03-26T18:49:49.828Z,16.73
2019-03-26T18:55:02.756Z,15.10
2019-03-26T19:00:18.265Z,24.53
2019-03-26T19:05:31.597Z,17.30
2019-03-26T19:10:47.549Z,17.03
2019-03-26T19:16:27.841Z,13.60
2019-03-26T19:21:41.379Z,18.83
2019-03-26T19:26:57.985Z,16.17
2019-03-26T19:32:13.626Z,22.20
2019-03-26T19:37:30.344Z,16.37
2019-03-26T19:42:41.532Z,18.10
2019-03-26T19:48:02.316Z,15.90
2019-03-26T19:53:19.499Z,17.23
2019-03-26T19:58:38.433Z,17.80
2019-03-26T20:03:50.348Z,12.27
2019-03-26T20:09:05.076Z,18.13
2019-03-26T20:14:15.405Z,20.00
2019-03-26T20:19:25.887Z,20.00
2019-03-26T20:24:37.375Z,17.70
2019-03-26T20:29:56.139Z,17.93
2019-03-26T20:35:11.341Z,20.53
2019-03-26T20:40:22.023Z,18.98
2019-03-26T20:45:53.701Z,18.30
2019-03-26T20:51:14.492Z,24.70
2019-03-26T20:56:26.984Z,21.10
2019-03-26T21:01:40.512Z,19.60
2019-03-26T21:07:01.617Z,17.50
2019-03-26T21:12:21.644Z,19.43
2019-03-26T21:17:33.219Z,21.77
2019-03-26T21:22:49.242Z,22.13
2019-03-26T21:28:00.546Z,20.27
2019-03-26T21:33:15.139Z,22.35
2019-03-26T21:38:29.082Z,15.63
2019-03-26T21:44:03.592Z,18.10
2019-03-26T21:49:09.258Z,17.23
2019-03-26T21:54:24.291Z,16.57
2019-03-26T21:59:39.257Z,18.07
2019-03-26T22:04:52.216Z,27.00
2019-03-26T22:10:11.645Z,21.47
2019-03-26T22:15:25.518Z,23.83
2019-03-26T22:20:39.598Z,18.77
2019-03-26T22:26:10.090Z,26.77
2019-03-26T22:31:27.652Z,20.45
2019-03-26T22:36:44.878Z,23.83
2019-03-26T22:42:15.808Z,17.57
2019-03-26T22:47:43.011Z,24.53
2019-03-26T22:52:56.586Z,23.67
2019-03-26T22:58:08.217Z,19.43
2019-03-26T23:03:21.304Z,24.18
2019-03-26T23:08:36.328Z,23.43
2019-03-26T23:13:54.867Z,21.87
2019-03-26T23:19:18.849Z,27.23
2019-03-26T23:24:34.763Z,29.77
2019-03-26T23:29:45.214Z,26.23
2019-03-26T23:34:58.242Z,22.30
2019-03-26T23:40:12.291Z,23.20
2019-03-26T23:45:26.268Z,18.03
2019-03-26T23:50:40.475Z,27.20
2019-03-26T23:55:56.505Z,26.93
